sensor_id;sensor_type;location;lat;lon;timestamp;temperature;humidity
3348;DHT22;1687;49.540;8.574;2023-07-13T00:01:47;22.30;51.40
3348;DHT22;1687;49.540;8.574;2023-07-13T00:04:18;22.20;51.30
3348;DHT22;1687;49.540;8.574;2023-07-13T00:06:47;22.10;51.30
3348;DHT22;1687;49.540;8.574;2023-07-13T00:09:13;22.00;51.30
3348;DHT22;1687;49.540;8.574;2023-07-13T00:11:41;21.90;51.40
3348;DHT22;1687;49.540;8.574;2023-07-13T00:14:07;21.90;51.60
3348;DHT22;1687;49.540;8.574;2023-07-13T00:16:37;21.90;51.60
3348;DHT22;1687;49.540;8.574;2023-07-13T00:19:04;21.90;51.60
3348;DHT22;1687;49.540;8.574;2023-07-13T00:21:30;21.90;51.60
3348;DHT22;1687;49.540;8.574;2023-07-13T00:23:56;21.80;51.50
3348;DHT22;1687;49.540;8.574;2023-07-13T00:26:22;21.70;51.60
3348;DHT22;1687;49.540;8.574;2023-07-13T00:28:49;21.60;51.60
3348;DHT22;1687;49.540;8.574;2023-07-13T00:31:15;21.50;51.60
3348;DHT22;1687;49.540;8.574;2023-07-13T00:33:41;21.40;51.70
3348;DHT22;1687;49.540;8.574;2023-07-13T00:36:08;21.40;52.00
3348;DHT22;1687;49.540;8.574;2023-07-13T00:38:34;21.40;52.00
3348;DHT22;1687;49.540;8.574;2023-07-13T00:41:00;21.30;52.10
3348;DHT22;1687;49.540;8.574;2023-07-13T00:43:28;21.30;52.20
3348;DHT22;1687;49.540;8.574;2023-07-13T00:46:10;21.30;52.20
3348;DHT22;1687;49.540;8.574;2023-07-13T00:48:54;21.30;52.30
3348;DHT22;1687;49.540;8.574;2023-07-13T00:51:25;21.20;52.30
3348;DHT22;1687;49.540;8.574;2023-07-13T00:53:56;21.10;52.30
3348;DHT22;1687;49.540;8.574;2023-07-13T00:56:24;21.00;52.20
3348;DHT22;1687;49.540;8.574;2023-07-13T00:58:51;20.90;52.40
3348;DHT22;1687;49.540;8.574;2023-07-13T01:01:17;20.90;52.50
3348;DHT22;1687;49.540;8.574;2023-07-13T01:03:43;20.80;52.60
3348;DHT22;1687;49.540;8.574;2023-07-13T01:06:09;20.80;52.70
3348;DHT22;1687;49.540;8.574;2023-07-13T01:08:36;20.70;52.60
3348;DHT22;1687;49.540;8.574;2023-07-13T01:11:01;20.60;52.70
3348;DHT22;1687;49.540;8.574;2023-07-13T01:13:27;20.60;53.00
3348;DHT22;1687;49.540;8.574;2023-07-13T01:15:55;20.50;53.00
3348;DHT22;1687;49.540;8.574;2023-07-13T01:18:25;20.50;53.20
3348;DHT22;1687;49.540;8.574;2023-07-13T01:20:53;20.50;53.30
3348;DHT22;1687;49.540;8.574;2023-07-13T01:23:20;20.50;53.30
3348;DHT22;1687;49.540;8.574;2023-07-13T01:25:47;20.40;53.10
3348;DHT22;1687;49.540;8.574;2023-07-13T01:28:13;20.30;53.20
3348;DHT22;1687;49.540;8.574;2023-07-13T01:30:39;20.20;53.40
3348;DHT22;1687;49.540;8.574;2023-07-13T01:33:07;20.10;53.60
3348;DHT22;1687;49.540;8.574;2023-07-13T01:35:33;20.10;53.70
3348;DHT22;1687;49.540;8.574;2023-07-13T01:37:59;20.10;53.90
3348;DHT22;1687;49.540;8.574;2023-07-13T01:40:27;20.00;53.80
3348;DHT22;1687;49.540;8.574;2023-07-13T01:42:53;19.90;53.90
3348;DHT22;1687;49.540;8.574;2023-07-13T01:45:18;20.00;54.50
3348;DHT22;1687;49.540;8.574;2023-07-13T01:47:44;19.90;54.10
3348;DHT22;1687;49.540;8.574;2023-07-13T01:50:10;19.80;54.10
3348;DHT22;1687;49.540;8.574;2023-07-13T01:52:35;19.80;54.40
3348;DHT22;1687;49.540;8.574;2023-07-13T01:55:01;19.80;54.50
3348;DHT22;1687;49.540;8.574;2023-07-13T01:57:27;19.70;54.50
3348;DHT22;1687;49.540;8.574;2023-07-13T01:59:53;19.70;54.70
3348;DHT22;1687;49.540;8.574;2023-07-13T02:02:19;19.70;54.80
3348;DHT22;1687;49.540;8.574;2023-07-13T02:04:45;19.60;54.70
3348;DHT22;1687;49.540;8.574;2023-07-13T02:07:11;19.60;55.00
3348;DHT22;1687;49.540;8.574;2023-07-13T02:09:36;19.60;55.00
3348;DHT22;1687;49.540;8.574;2023-07-13T02:12:03;19.60;55.10
3348;DHT22;1687;49.540;8.574;2023-07-13T02:14:28;19.50;55.80
3348;DHT22;1687;49.540;8.574;2023-07-13T02:16:54;19.60;55.40
3348;DHT22;1687;49.540;8.574;2023-07-13T02:19:20;19.60;55.30
3348;DHT22;1687;49.540;8.574;2023-07-13T02:21:46;19.60;55.50
3348;DHT22;1687;49.540;8.574;2023-07-13T02:24:11;19.60;55.50
3348;DHT22;1687;49.540;8.574;2023-07-13T02:26:45;19.60;55.40
3348;DHT22;1687;49.540;8.574;2023-07-13T02:29:11;19.60;55.50
3348;DHT22;1687;49.540;8.574;2023-07-13T02:31:37;19.60;55.60
3348;DHT22;1687;49.540;8.574;2023-07-13T02:34:03;19.60;55.70
3348;DHT22;1687;49.540;8.574;2023-07-13T02:36:30;19.50;55.60
3348;DHT22;1687;49.540;8.574;2023-07-13T02:39:00;19.50;55.70
3348;DHT22;1687;49.540;8.574;2023-07-13T02:41:28;19.50;55.80
3348;DHT22;1687;49.540;8.574;2023-07-13T02:43:54;19.60;55.90
3348;DHT22;1687;49.540;8.574;2023-07-13T02:46:28;19.60;55.90
3348;DHT22;1687;49.540;8.574;2023-07-13T02:48:55;19.50;55.90
3348;DHT22;1687;49.540;8.574;2023-07-13T02:51:21;19.40;55.80
3348;DHT22;1687;49.540;8.574;2023-07-13T02:53:46;19.40;56.00
3348;DHT22;1687;49.540;8.574;2023-07-13T02:56:12;19.40;56.00
3348;DHT22;1687;49.540;8.574;2023-07-13T02:58:38;19.40;56.00
3348;DHT22;1687;49.540;8.574;2023-07-13T03:01:08;19.30;55.90
3348;DHT22;1687;49.540;8.574;2023-07-13T03:03:35;19.30;56.20
3348;DHT22;1687;49.540;8.574;2023-07-13T03:06:03;19.30;56.30
3348;DHT22;1687;49.540;8.574;2023-07-13T03:08:30;19.20;56.10
3348;DHT22;1687;49.540;8.574;2023-07-13T03:11:03;19.20;56.30
3348;DHT22;1687;49.540;8.574;2023-07-13T03:13:31;19.10;56.40
3348;DHT22;1687;49.540;8.574;2023-07-13T03:15:57;19.00;56.50
3348;DHT22;1687;49.540;8.574;2023-07-13T03:18:26;19.00;56.60
3348;DHT22;1687;49.540;8.574;2023-07-13T03:20:52;19.10;56.80
3348;DHT22;1687;49.540;8.574;2023-07-13T03:23:19;19.10;56.70
3348;DHT22;1687;49.540;8.574;2023-07-13T03:25:45;19.10;56.70
3348;DHT22;1687;49.540;8.574;2023-07-13T03:28:12;19.00;56.70
3348;DHT22;1687;49.540;8.574;2023-07-13T03:30:38;19.00;56.90
3348;DHT22;1687;49.540;8.574;2023-07-13T03:33:04;19.00;57.00
3348;DHT22;1687;49.540;8.574;2023-07-13T03:35:30;19.10;57.00
3348;DHT22;1687;49.540;8.574;2023-07-13T03:37:55;19.10;57.10
3348;DHT22;1687;49.540;8.574;2023-07-13T03:40:22;19.20;57.20
3348;DHT22;1687;49.540;8.574;2023-07-13T03:42:48;19.20;57.20
3348;DHT22;1687;49.540;8.574;2023-07-13T03:45:13;19.20;57.20
3348;DHT22;1687;49.540;8.574;2023-07-13T03:47:39;19.30;57.30
3348;DHT22;1687;49.540;8.574;2023-07-13T03:50:05;19.20;57.10
3348;DHT22;1687;49.540;8.574;2023-07-13T03:52:31;19.20;57.20
3348;DHT22;1687;49.540;8.574;2023-07-13T03:54:57;19.30;57.30
3348;DHT22;1687;49.540;8.574;2023-07-13T03:57:22;19.20;57.30
3348;DHT22;1687;49.540;8.574;2023-07-13T03:59:48;19.30;57.40
3348;DHT22;1687;49.540;8.574;2023-07-13T04:02:14;19.30;57.30
3348;DHT22;1687;49.540;8.574;2023-07-13T04:04:40;19.30;57.30
3348;DHT22;1687;49.540;8.574;2023-07-13T04:07:06;19.30;57.30
3348;DHT22;1687;49.540;8.574;2023-07-13T04:09:33;19.30;57.30
3348;DHT22;1687;49.540;8.574;2023-07-13T04:11:59;19.30;57.30
3348;DHT22;1687;49.540;8.574;2023-07-13T04:14:25;19.30;57.30
3348;DHT22;1687;49.540;8.574;2023-07-13T04:16:51;19.30;57.30
3348;DHT22;1687;49.540;8.574;2023-07-13T04:19:17;19.30;57.30
3348;DHT22;1687;49.540;8.574;2023-07-13T04:21:42;19.20;57.20
3348;DHT22;1687;49.540;8.574;2023-07-13T04:24:08;19.10;57.80
3348;DHT22;1687;49.540;8.574;2023-07-13T04:26:34;19.00;57.40
3348;DHT22;1687;49.540;8.574;2023-07-13T04:29:02;19.10;57.50
3348;DHT22;1687;49.540;8.574;2023-07-13T04:31:29;19.10;57.50
3348;DHT22;1687;49.540;8.574;2023-07-13T04:33:55;19.10;57.40
3348;DHT22;1687;49.540;8.574;2023-07-13T04:36:21;19.10;57.50
3348;DHT22;1687;49.540;8.574;2023-07-13T04:38:47;19.00;57.40
3348;DHT22;1687;49.540;8.574;2023-07-13T04:41:13;19.00;57.50
3348;DHT22;1687;49.540;8.574;2023-07-13T04:43:40;19.00;57.60
3348;DHT22;1687;49.540;8.574;2023-07-13T04:46:12;19.00;57.70
3348;DHT22;1687;49.540;8.574;2023-07-13T04:48:38;19.00;57.70
3348;DHT22;1687;49.540;8.574;2023-07-13T04:51:05;19.00;57.80
3348;DHT22;1687;49.540;8.574;2023-07-13T04:53:31;18.90;57.80
3348;DHT22;1687;49.540;8.574;2023-07-13T04:55:59;18.90;57.90
3348;DHT22;1687;49.540;8.574;2023-07-13T04:58:25;18.90;57.90
3348;DHT22;1687;49.540;8.574;2023-07-13T05:00:51;18.90;57.80
3348;DHT22;1687;49.540;8.574;2023-07-13T05:03:17;18.80;57.90
3348;DHT22;1687;49.540;8.574;2023-07-13T05:05:43;18.80;58.10
3348;DHT22;1687;49.540;8.574;2023-07-13T05:08:09;18.70;58.10
3348;DHT22;1687;49.540;8.574;2023-07-13T05:10:35;18.70;58.30
3348;DHT22;1687;49.540;8.574;2023-07-13T05:13:01;18.70;58.50
3348;DHT22;1687;49.540;8.574;2023-07-13T05:15:27;18.80;58.60
3348;DHT22;1687;49.540;8.574;2023-07-13T05:17:53;18.90;58.70
3348;DHT22;1687;49.540;8.574;2023-07-13T05:20:19;19.00;58.80
3348;DHT22;1687;49.540;8.574;2023-07-13T05:22:45;19.10;58.80
3348;DHT22;1687;49.540;8.574;2023-07-13T05:25:13;19.10;58.80
3348;DHT22;1687;49.540;8.574;2023-07-13T05:27:39;19.10;58.90
3348;DHT22;1687;49.540;8.574;2023-07-13T05:30:05;19.10;58.90
3348;DHT22;1687;49.540;8.574;2023-07-13T05:32:32;19.20;59.10
3348;DHT22;1687;49.540;8.574;2023-07-13T05:34:58;19.20;59.10
3348;DHT22;1687;49.540;8.574;2023-07-13T05:37:24;19.30;59.20
3348;DHT22;1687;49.540;8.574;2023-07-13T05:39:49;19.40;59.20
3348;DHT22;1687;49.540;8.574;2023-07-13T05:42:15;19.50;59.10
3348;DHT22;1687;49.540;8.574;2023-07-13T05:44:41;19.50;59.20
3348;DHT22;1687;49.540;8.574;2023-07-13T05:47:06;19.50;59.30
3348;DHT22;1687;49.540;8.574;2023-07-13T05:49:32;19.50;59.00
3348;DHT22;1687;49.540;8.574;2023-07-13T05:51:58;19.60;59.20
3348;DHT22;1687;49.540;8.574;2023-07-13T05:54:23;19.60;59.30
3348;DHT22;1687;49.540;8.574;2023-07-13T05:56:49;19.70;59.30
3348;DHT22;1687;49.540;8.574;2023-07-13T05:59:15;19.70;59.20
3348;DHT22;1687;49.540;8.574;2023-07-13T06:01:41;19.80;59.20
3348;DHT22;1687;49.540;8.574;2023-07-13T06:04:07;19.70;59.00
3348;DHT22;1687;49.540;8.574;2023-07-13T06:06:33;19.70;59.20
3348;DHT22;1687;49.540;8.574;2023-07-13T06:08:58;19.60;59.10
3348;DHT22;1687;49.540;8.574;2023-07-13T06:11:26;19.70;59.40
3348;DHT22;1687;49.540;8.574;2023-07-13T06:13:53;19.90;59.40
3348;DHT22;1687;49.540;8.574;2023-07-13T06:16:19;20.10;59.60
3348;DHT22;1687;49.540;8.574;2023-07-13T06:18:45;20.30;59.20
3348;DHT22;1687;49.540;8.574;2023-07-13T06:21:15;20.30;59.10
3348;DHT22;1687;49.540;8.574;2023-07-13T06:23:41;20.30;59.10
3348;DHT22;1687;49.540;8.574;2023-07-13T06:26:08;20.50;59.10
3348;DHT22;1687;49.540;8.574;2023-07-13T06:28:36;20.60;58.80
3348;DHT22;1687;49.540;8.574;2023-07-13T06:31:04;20.70;58.80
3348;DHT22;1687;49.540;8.574;2023-07-13T06:33:33;20.80;58.70
3348;DHT22;1687;49.540;8.574;2023-07-13T06:35:59;21.00;58.90
3348;DHT22;1687;49.540;8.574;2023-07-13T06:38:25;21.30;58.80
3348;DHT22;1687;49.540;8.574;2023-07-13T06:40:50;21.40;58.30
3348;DHT22;1687;49.540;8.574;2023-07-13T06:43:17;21.30;58.00
3348;DHT22;1687;49.540;8.574;2023-07-13T06:45:45;21.40;58.30
3348;DHT22;1687;49.540;8.574;2023-07-13T06:48:13;21.60;58.20
3348;DHT22;1687;49.540;8.574;2023-07-13T06:50:39;21.80;58.30
3348;DHT22;1687;49.540;8.574;2023-07-13T06:53:06;22.10;58.10
3348;DHT22;1687;49.540;8.574;2023-07-13T06:55:32;22.10;57.60
3348;DHT22;1687;49.540;8.574;2023-07-13T06:57:58;22.30;57.80
3348;DHT22;1687;49.540;8.574;2023-07-13T07:00:23;22.40;57.60
3348;DHT22;1687;49.540;8.574;2023-07-13T07:02:49;22.50;57.30
3348;DHT22;1687;49.540;8.574;2023-07-13T07:05:15;22.50;57.10
3348;DHT22;1687;49.540;8.574;2023-07-13T07:07:40;22.60;56.80
3348;DHT22;1687;49.540;8.574;2023-07-13T07:10:06;22.60;56.90
3348;DHT22;1687;49.540;8.574;2023-07-13T07:12:32;22.70;56.70
3348;DHT22;1687;49.540;8.574;2023-07-13T07:14:58;22.70;56.40
3348;DHT22;1687;49.540;8.574;2023-07-13T07:17:24;22.70;56.30
3348;DHT22;1687;49.540;8.574;2023-07-13T07:19:51;22.70;56.00
3348;DHT22;1687;49.540;8.574;2023-07-13T07:22:20;22.90;56.30
3348;DHT22;1687;49.540;8.574;2023-07-13T07:24:46;23.20;56.30
3348;DHT22;1687;49.540;8.574;2023-07-13T07:27:11;23.40;55.90
3348;DHT22;1687;49.540;8.574;2023-07-13T07:29:37;23.40;55.70
3348;DHT22;1687;49.540;8.574;2023-07-13T07:32:03;23.50;55.70
3348;DHT22;1687;49.540;8.574;2023-07-13T07:34:30;23.50;55.50
3348;DHT22;1687;49.540;8.574;2023-07-13T07:37:00;23.70;55.60
3348;DHT22;1687;49.540;8.574;2023-07-13T07:39:26;23.80;55.40
3348;DHT22;1687;49.540;8.574;2023-07-13T07:41:52;24.00;55.30
3348;DHT22;1687;49.540;8.574;2023-07-13T07:44:18;24.20;55.30
3348;DHT22;1687;49.540;8.574;2023-07-13T07:46:44;24.30;55.00
3348;DHT22;1687;49.540;8.574;2023-07-13T07:49:10;24.30;54.60
3348;DHT22;1687;49.540;8.574;2023-07-13T07:51:36;24.10;54.70
3348;DHT22;1687;49.540;8.574;2023-07-13T07:54:02;23.90;54.00
3348;DHT22;1687;49.540;8.574;2023-07-13T07:56:28;23.90;53.80
3348;DHT22;1687;49.540;8.574;2023-07-13T07:58:54;23.80;53.60
3348;DHT22;1687;49.540;8.574;2023-07-13T08:01:20;24.00;54.00
3348;DHT22;1687;49.540;8.574;2023-07-13T08:03:46;24.10;53.50
3348;DHT22;1687;49.540;8.574;2023-07-13T08:06:12;24.10;53.40
3348;DHT22;1687;49.540;8.574;2023-07-13T08:08:38;24.30;53.50
3348;DHT22;1687;49.540;8.574;2023-07-13T08:11:08;24.40;53.10
3348;DHT22;1687;49.540;8.574;2023-07-13T08:13:34;24.30;52.80
3348;DHT22;1687;49.540;8.574;2023-07-13T08:16:00;24.40;53.30
3348;DHT22;1687;49.540;8.574;2023-07-13T08:18:26;24.50;53.00
3348;DHT22;1687;49.540;8.574;2023-07-13T08:20:53;24.70;53.10
3348;DHT22;1687;49.540;8.574;2023-07-13T08:23:21;24.80;52.80
3348;DHT22;1687;49.540;8.574;2023-07-13T08:25:52;24.80;52.40
3348;DHT22;1687;49.540;8.574;2023-07-13T08:28:19;24.80;52.30
3348;DHT22;1687;49.540;8.574;2023-07-13T08:30:46;24.90;52.60
3348;DHT22;1687;49.540;8.574;2023-07-13T08:33:19;25.00;52.40
3348;DHT22;1687;49.540;8.574;2023-07-13T08:35:49;25.20;52.30
3348;DHT22;1687;49.540;8.574;2023-07-13T08:38:15;25.20;51.80
3348;DHT22;1687;49.540;8.574;2023-07-13T08:40:43;25.20;51.80
3348;DHT22;1687;49.540;8.574;2023-07-13T08:43:15;25.20;51.80
3348;DHT22;1687;49.540;8.574;2023-07-13T08:45:52;25.40;52.00
3348;DHT22;1687;49.540;8.574;2023-07-13T08:48:26;25.70;51.80
3348;DHT22;1687;49.540;8.574;2023-07-13T08:53:49;26.00;51.40
3348;DHT22;1687;49.540;8.574;2023-07-13T08:56:22;26.30;51.30
3348;DHT22;1687;49.540;8.574;2023-07-13T08:58:58;26.20;50.50
3348;DHT22;1687;49.540;8.574;2023-07-13T09:10:41;25.20;50.10
3348;DHT22;1687;49.540;8.574;2023-07-13T09:16:04;25.30;50.20
3348;DHT22;1687;49.540;8.574;2023-07-13T09:18:37;25.60;50.40
3348;DHT22;1687;49.540;8.574;2023-07-13T09:21:17;25.80;50.00
3348;DHT22;1687;49.540;8.574;2023-07-13T09:23:47;26.10;50.20
3348;DHT22;1687;49.540;8.574;2023-07-13T09:26:18;26.30;49.90
3348;DHT22;1687;49.540;8.574;2023-07-13T09:28:48;26.30;49.50
3348;DHT22;1687;49.540;8.574;2023-07-13T09:31:34;26.40;50.00
3348;DHT22;1687;49.540;8.574;2023-07-13T09:34:06;26.30;49.30
3348;DHT22;1687;49.540;8.574;2023-07-13T09:36:35;26.40;49.30
3348;DHT22;1687;49.540;8.574;2023-07-13T09:39:26;26.40;49.10
3348;DHT22;1687;49.540;8.574;2023-07-13T09:42:16;26.40;48.90
3348;DHT22;1687;49.540;8.574;2023-07-13T09:47:27;26.20;48.30
3348;DHT22;1687;49.540;8.574;2023-07-13T09:49:59;26.10;48.20
3348;DHT22;1687;49.540;8.574;2023-07-13T09:52:41;26.20;48.20
3348;DHT22;1687;49.540;8.574;2023-07-13T09:55:33;26.20;47.90
3348;DHT22;1687;49.540;8.574;2023-07-13T09:58:08;26.30;47.90
3348;DHT22;1687;49.540;8.574;2023-07-13T10:00:44;26.30;47.70
3348;DHT22;1687;49.540;8.574;2023-07-13T10:03:28;26.30;47.50
3348;DHT22;1687;49.540;8.574;2023-07-13T10:06:10;26.10;47.40
3348;DHT22;1687;49.540;8.574;2023-07-13T10:08:44;25.90;47.30
3348;DHT22;1687;49.540;8.574;2023-07-13T10:11:26;25.80;47.20
3348;DHT22;1687;49.540;8.574;2023-07-13T10:14:07;25.80;47.20
3348;DHT22;1687;49.540;8.574;2023-07-13T10:16:44;25.80;47.20
3348;DHT22;1687;49.540;8.574;2023-07-13T10:24:49;25.70;47.10
3348;DHT22;1687;49.540;8.574;2023-07-13T10:27:19;25.80;47.20
3348;DHT22;1687;49.540;8.574;2023-07-13T10:29:50;25.70;47.10
3348;DHT22;1687;49.540;8.574;2023-07-13T10:32:21;25.80;47.10
3348;DHT22;1687;49.540;8.574;2023-07-13T10:34:49;25.90;47.20
3348;DHT22;1687;49.540;8.574;2023-07-13T10:37:27;26.10;47.10
3348;DHT22;1687;49.540;8.574;2023-07-13T10:39:59;26.10;46.80
3348;DHT22;1687;49.540;8.574;2023-07-13T10:42:40;26.00;46.60
3348;DHT22;1687;49.540;8.574;2023-07-13T10:45:20;26.00;46.40
3348;DHT22;1687;49.540;8.574;2023-07-13T10:47:48;26.00;46.80
3348;DHT22;1687;49.540;8.574;2023-07-13T10:50:21;26.00;46.50
3348;DHT22;1687;49.540;8.574;2023-07-13T10:52:52;26.10;46.30
3348;DHT22;1687;49.540;8.574;2023-07-13T10:55:54;26.10;46.20
3348;DHT22;1687;49.540;8.574;2023-07-13T10:58:36;26.20;46.20
3348;DHT22;1687;49.540;8.574;2023-07-13T11:01:07;26.40;46.30
3348;DHT22;1687;49.540;8.574;2023-07-13T11:03:50;26.60;46.30
3348;DHT22;1687;49.540;8.574;2023-07-13T11:09:49;26.80;45.60
3348;DHT22;1687;49.540;8.574;2023-07-13T11:11:56;26.80;45.40
3348;DHT22;1687;49.540;8.574;2023-07-13T11:15:09;26.80;45.10
3348;DHT22;1687;49.540;8.574;2023-07-13T11:19:53;26.90;45.10
3348;DHT22;1687;49.540;8.574;2023-07-13T11:22:25;26.90;45.00
3348;DHT22;1687;49.540;8.574;2023-07-13T11:25:28;26.80;44.60
3348;DHT22;1687;49.540;8.574;2023-07-13T11:33:28;26.90;44.30
3348;DHT22;1687;49.540;8.574;2023-07-13T11:36:15;26.90;44.40
3348;DHT22;1687;49.540;8.574;2023-07-13T11:38:51;26.80;44.30
3348;DHT22;1687;49.540;8.574;2023-07-13T11:41:43;27.00;44.50
3348;DHT22;1687;49.540;8.574;2023-07-13T11:44:20;27.40;44.60
3348;DHT22;1687;49.540;8.574;2023-07-13T11:46:49;27.60;44.20
3348;DHT22;1687;49.540;8.574;2023-07-13T11:49:18;27.70;44.10
3348;DHT22;1687;49.540;8.574;2023-07-13T11:51:44;27.90;43.60
3348;DHT22;1687;49.540;8.574;2023-07-13T11:54:24;28.10;43.70
3348;DHT22;1687;49.540;8.574;2023-07-13T11:56:59;28.00;43.40
3348;DHT22;1687;49.540;8.574;2023-07-13T11:59:29;27.90;43.40
3348;DHT22;1687;49.540;8.574;2023-07-13T12:01:57;27.90;43.30
3348;DHT22;1687;49.540;8.574;2023-07-13T12:04:26;28.00;43.30
3348;DHT22;1687;49.540;8.574;2023-07-13T12:07:03;28.00;43.10
3348;DHT22;1687;49.540;8.574;2023-07-13T12:09:33;27.90;43.00
3348;DHT22;1687;49.540;8.574;2023-07-13T12:11:59;27.70;42.80
3348;DHT22;1687;49.540;8.574;2023-07-13T12:14:27;27.50;42.80
3348;DHT22;1687;49.540;8.574;2023-07-13T12:16:54;27.50;42.90
3348;DHT22;1687;49.540;8.574;2023-07-13T12:19:26;27.60;42.90
3348;DHT22;1687;49.540;8.574;2023-07-13T12:21:57;27.70;43.10
3348;DHT22;1687;49.540;8.574;2023-07-13T12:24:24;27.70;42.70
3348;DHT22;1687;49.540;8.574;2023-07-13T12:26:59;27.50;42.60
3348;DHT22;1687;49.540;8.574;2023-07-13T12:29:26;27.40;42.60
3348;DHT22;1687;49.540;8.574;2023-07-13T12:31:52;27.30;42.60
3348;DHT22;1687;49.540;8.574;2023-07-13T12:34:22;27.50;42.60
3348;DHT22;1687;49.540;8.574;2023-07-13T12:41:52;27.70;42.40
3348;DHT22;1687;49.540;8.574;2023-07-13T12:44:29;27.60;42.20
3348;DHT22;1687;49.540;8.574;2023-07-13T12:47:05;27.60;42.30
3348;DHT22;1687;49.540;8.574;2023-07-13T12:49:41;27.70;42.30
3348;DHT22;1687;49.540;8.574;2023-07-13T12:52:20;27.90;42.40
3348;DHT22;1687;49.540;8.574;2023-07-13T12:55:03;27.90;41.90
3348;DHT22;1687;49.540;8.574;2023-07-13T12:58:02;27.90;41.80
3348;DHT22;1687;49.540;8.574;2023-07-13T13:00:37;27.90;42.00
3348;DHT22;1687;49.540;8.574;2023-07-13T13:05:57;28.10;41.80
3348;DHT22;1687;49.540;8.574;2023-07-13T13:08:25;28.20;41.70
3348;DHT22;1687;49.540;8.574;2023-07-13T13:10:51;28.20;41.60
3348;DHT22;1687;49.540;8.574;2023-07-13T13:13:16;28.10;41.40
3348;DHT22;1687;49.540;8.574;2023-07-13T13:15:42;28.00;41.50
3348;DHT22;1687;49.540;8.574;2023-07-13T13:18:15;27.90;41.50
3348;DHT22;1687;49.540;8.574;2023-07-13T13:20:51;27.70;41.20
3348;DHT22;1687;49.540;8.574;2023-07-13T13:23:19;27.50;41.50
3348;DHT22;1687;49.540;8.574;2023-07-13T13:25:47;27.50;41.70
3348;DHT22;1687;49.540;8.574;2023-07-13T13:28:18;27.50;41.90
3348;DHT22;1687;49.540;8.574;2023-07-13T13:30:46;27.60;41.90
3348;DHT22;1687;49.540;8.574;2023-07-13T13:33:17;27.60;41.80
3348;DHT22;1687;49.540;8.574;2023-07-13T13:35:44;27.60;41.90
3348;DHT22;1687;49.540;8.574;2023-07-13T13:38:15;27.70;42.00
3348;DHT22;1687;49.540;8.574;2023-07-13T13:40:44;27.60;41.90
3348;DHT22;1687;49.540;8.574;2023-07-13T13:43:18;27.60;41.60
3348;DHT22;1687;49.540;8.574;2023-07-13T13:45:46;27.40;41.60
3348;DHT22;1687;49.540;8.574;2023-07-13T13:48:21;27.30;41.70
3348;DHT22;1687;49.540;8.574;2023-07-13T13:50:56;27.40;41.90
3348;DHT22;1687;49.540;8.574;2023-07-13T13:53:22;27.30;41.70
3348;DHT22;1687;49.540;8.574;2023-07-13T13:55:49;27.20;41.90
3348;DHT22;1687;49.540;8.574;2023-07-13T13:58:15;27.50;42.10
3348;DHT22;1687;49.540;8.574;2023-07-13T14:00:41;27.90;42.40
3348;DHT22;1687;49.540;8.574;2023-07-13T14:03:20;28.30;42.10
3348;DHT22;1687;49.540;8.574;2023-07-13T14:05:48;28.50;41.90
3348;DHT22;1687;49.540;8.574;2023-07-13T14:08:18;28.80;41.90
3348;DHT22;1687;49.540;8.574;2023-07-13T14:10:47;28.90;41.50
3348;DHT22;1687;49.540;8.574;2023-07-13T14:13:27;28.70;41.40
3348;DHT22;1687;49.540;8.574;2023-07-13T14:15:54;28.50;41.40
3348;DHT22;1687;49.540;8.574;2023-07-13T14:18:20;28.20;41.10
3348;DHT22;1687;49.540;8.574;2023-07-13T14:20:48;28.00;42.20
3348;DHT22;1687;49.540;8.574;2023-07-13T14:23:14;27.90;41.60
3348;DHT22;1687;49.540;8.574;2023-07-13T14:25:41;27.90;41.60
3348;DHT22;1687;49.540;8.574;2023-07-13T14:28:23;28.10;41.80
3348;DHT22;1687;49.540;8.574;2023-07-13T14:30:50;29.80;42.50
3348;DHT22;1687;49.540;8.574;2023-07-13T14:33:16;30.60;41.10
3348;DHT22;1687;49.540;8.574;2023-07-13T14:35:42;30.40;40.80
3348;DHT22;1687;49.540;8.574;2023-07-13T14:38:18;30.20;40.30
3348;DHT22;1687;49.540;8.574;2023-07-13T14:40:45;29.80;40.40
3348;DHT22;1687;49.540;8.574;2023-07-13T14:43:15;29.60;40.50
3348;DHT22;1687;49.540;8.574;2023-07-13T14:45:45;30.10;41.00
3348;DHT22;1687;49.540;8.574;2023-07-13T14:48:24;31.30;40.90
3348;DHT22;1687;49.540;8.574;2023-07-13T14:50:54;32.60;40.70
3348;DHT22;1687;49.540;8.574;2023-07-13T14:53:22;32.40;39.80
3348;DHT22;1687;49.540;8.574;2023-07-13T14:55:48;31.90;39.40
3348;DHT22;1687;49.540;8.574;2023-07-13T14:58:14;31.20;39.30
3348;DHT22;1687;49.540;8.574;2023-07-13T15:00:40;30.40;39.10
3348;DHT22;1687;49.540;8.574;2023-07-13T15:03:18;29.80;39.40
3348;DHT22;1687;49.540;8.574;2023-07-13T15:05:47;30.00;40.00
3348;DHT22;1687;49.540;8.574;2023-07-13T15:08:13;31.00;40.20
3348;DHT22;1687;49.540;8.574;2023-07-13T15:10:40;31.80;40.30
3348;DHT22;1687;49.540;8.574;2023-07-13T15:13:18;33.60;40.50
3348;DHT22;1687;49.540;8.574;2023-07-13T15:15:51;35.30;39.80
3348;DHT22;1687;49.540;8.574;2023-07-13T15:18:21;36.10;38.80
3348;DHT22;1687;49.540;8.574;2023-07-13T15:20:49;35.40;37.30
3348;DHT22;1687;49.540;8.574;2023-07-13T15:23:17;33.80;36.80
3348;DHT22;1687;49.540;8.574;2023-07-13T15:25:44;32.60;37.10
3348;DHT22;1687;49.540;8.574;2023-07-13T15:28:10;32.30;37.70
3348;DHT22;1687;49.540;8.574;2023-07-13T15:33:30;33.80;37.30
3348;DHT22;1687;49.540;8.574;2023-07-13T15:35:56;33.10;36.60
3348;DHT22;1687;49.540;8.574;2023-07-13T15:38:27;32.30;36.90
3348;DHT22;1687;49.540;8.574;2023-07-13T15:40:55;31.60;37.00
3348;DHT22;1687;49.540;8.574;2023-07-13T15:43:22;31.00;37.30
3348;DHT22;1687;49.540;8.574;2023-07-13T15:45:48;30.60;37.60
3348;DHT22;1687;49.540;8.574;2023-07-13T15:48:20;30.30;37.80
3348;DHT22;1687;49.540;8.574;2023-07-13T15:50:50;30.10;37.90
3348;DHT22;1687;49.540;8.574;2023-07-13T15:53:29;30.80;38.90
3348;DHT22;1687;49.540;8.574;2023-07-13T15:55:57;32.00;38.50
3348;DHT22;1687;49.540;8.574;2023-07-13T15:58:24;32.20;38.00
3348;DHT22;1687;49.540;8.574;2023-07-13T16:00:50;32.10;37.80
3348;DHT22;1687;49.540;8.574;2023-07-13T16:03:20;31.70;37.60
3348;DHT22;1687;49.540;8.574;2023-07-13T16:05:46;31.00;37.50
3348;DHT22;1687;49.540;8.574;2023-07-13T16:08:30;30.60;37.70
3348;DHT22;1687;49.540;8.574;2023-07-13T16:10:58;30.60;38.10
3348;DHT22;1687;49.540;8.574;2023-07-13T16:13:25;30.60;38.20
3348;DHT22;1687;49.540;8.574;2023-07-13T16:15:52;30.40;38.60
3348;DHT22;1687;49.540;8.574;2023-07-13T16:18:18;30.00;37.90
3348;DHT22;1687;49.540;8.574;2023-07-13T16:20:47;29.50;38.00
3348;DHT22;1687;49.540;8.574;2023-07-13T16:23:15;29.30;38.30
3348;DHT22;1687;49.540;8.574;2023-07-13T16:25:42;29.10;38.30
3348;DHT22;1687;49.540;8.574;2023-07-13T16:28:10;28.80;38.30
3348;DHT22;1687;49.540;8.574;2023-07-13T16:30:37;28.60;38.60
3348;DHT22;1687;49.540;8.574;2023-07-13T16:33:04;28.50;39.30
3348;DHT22;1687;49.540;8.574;2023-07-13T16:35:32;28.40;38.80
3348;DHT22;1687;49.540;8.574;2023-07-13T16:40:40;28.30;38.90
3348;DHT22;1687;49.540;8.574;2023-07-13T16:43:11;28.30;39.10
3348;DHT22;1687;49.540;8.574;2023-07-13T16:45:38;28.20;39.10
3348;DHT22;1687;49.540;8.574;2023-07-13T16:48:16;27.90;38.90
3348;DHT22;1687;49.540;8.574;2023-07-13T16:50:45;27.60;39.10
3348;DHT22;1687;49.540;8.574;2023-07-13T16:53:28;27.40;39.30
3348;DHT22;1687;49.540;8.574;2023-07-13T16:55:55;27.20;39.40
3348;DHT22;1687;49.540;8.574;2023-07-13T16:58:25;27.20;39.70
3348;DHT22;1687;49.540;8.574;2023-07-13T17:00:56;27.30;39.90
3348;DHT22;1687;49.540;8.574;2023-07-13T17:03:23;27.40;39.90